Time;durP1;ratioP1;P1;durP2;ratioP2;P2;SDS_P1;SDS_P2;PMS_P1;PMS_P2;Temp;Humidity;BMP_temperature;BMP_pressure;BME280_temperature;BME280_humidity;BME280_pressure;Samples;Min_cycle;Max_cycle;Signal;HPM_P1;HPM_P2
2023/07/04 00:01:58;;;;;;;19.52;4.50;;;;;;;;;;5029220;28;25067;-79
2023/07/04 00:04:29;;;;;;;34.35;6.25;;;;;;;;;;5029148;28;25054;-79
2023/07/04 00:06:55;;;;;;;37.00;7.55;;;;;;;;;;5037140;28;25093;-78
2023/07/04 00:09:21;;;;;;;21.23;5.30;;;;;;;;;;5030671;28;25106;-77
2023/07/04 00:11:47;;;;;;;9.30;2.97;;;;;;;;;;5037217;28;25060;-78
2023/07/04 00:14:13;;;;;;;11.80;2.60;;;;;;;;;;5032463;28;25063;-81
2023/07/04 00:16:39;;;;;;;9.98;2.63;;;;;;;;;;5032861;28;25060;-82
2023/07/04 00:19:06;;;;;;;6.47;2.58;;;;;;;;;;5043095;28;25083;-81
2023/07/04 00:21:33;;;;;;;13.52;3.70;;;;;;;;;;5036757;28;25169;-80
2023/07/04 00:23:59;;;;;;;5.53;2.25;;;;;;;;;;5041118;28;25157;-81
2023/07/04 00:26:26;;;;;;;11.57;2.70;;;;;;;;;;5040650;28;25065;-78
2023/07/04 00:28:52;;;;;;;7.97;2.40;;;;;;;;;;5052207;28;25080;-84
2023/07/04 00:31:22;;;;;;;14.95;2.85;;;;;;;;;;5044867;28;25104;-84
2023/07/04 00:33:48;;;;;;;7.95;2.45;;;;;;;;;;5052434;28;25054;-82
2023/07/04 00:36:16;;;;;;;10.65;2.47;;;;;;;;;;5044111;28;25104;-81
2023/07/04 00:38:42;;;;;;;7.40;2.20;;;;;;;;;;5050836;28;25076;-82
2023/07/04 00:41:13;;;;;;;7.18;1.88;;;;;;;;;;5033876;28;25073;-78
2023/07/04 00:44:01;;;;;;;8.25;2.53;;;;;;;;;;5043039;28;25065;-82
2023/07/04 00:46:37;;;;;;;7.32;2.10;;;;;;;;;;5044799;28;25098;-85
2023/07/04 00:49:09;;;;;;;5.35;1.70;;;;;;;;;;5050329;28;25125;-81
2023/07/04 00:51:35;;;;;;;5.65;2.17;;;;;;;;;;5038892;28;25060;-81
2023/07/04 00:54:04;;;;;;;8.30;2.05;;;;;;;;;;5043753;28;25064;-80
2023/07/04 00:56:30;;;;;;;6.82;1.88;;;;;;;;;;5042731;28;25047;-82
2023/07/04 00:58:59;;;;;;;7.40;1.90;;;;;;;;;;5042252;28;25056;-80
2023/07/04 01:01:25;;;;;;;14.07;2.22;;;;;;;;;;5038631;28;25090;-82
2023/07/04 01:03:52;;;;;;;6.32;1.77;;;;;;;;;;5040590;28;25083;-79
2023/07/04 01:06:21;;;;;;;6.63;1.55;;;;;;;;;;5034741;28;25135;-79
2023/07/04 01:08:56;;;;;;;11.75;2.40;;;;;;;;;;5031105;28;25069;-81
2023/07/04 01:11:29;;;;;;;7.25;2.35;;;;;;;;;;5036655;28;25054;-79
2023/07/04 01:13:55;;;;;;;6.22;1.88;;;;;;;;;;5052478;28;25065;-79
2023/07/04 01:16:22;;;;;;;13.88;1.92;;;;;;;;;;5032095;28;25091;-80
2023/07/04 01:18:49;;;;;;;12.88;2.63;;;;;;;;;;5033851;28;25060;-79
2023/07/04 01:21:17;;;;;;;6.30;1.83;;;;;;;;;;5021333;28;25081;-79
2023/07/04 01:24:03;;;;;;;12.25;2.65;;;;;;;;;;5034326;28;25038;-81
2023/07/04 01:26:31;;;;;;;8.68;2.40;;;;;;;;;;5033079;28;25154;-78
2023/07/04 01:28:58;;;;;;;7.63;1.83;;;;;;;;;;5034082;28;25085;-81
2023/07/04 01:31:25;;;;;;;18.85;2.85;;;;;;;;;;5031754;28;25068;-78
2023/07/04 01:33:51;;;;;;;5.95;1.95;;;;;;;;;;5039971;28;25061;-79
2023/07/04 01:36:18;;;;;;;10.18;1.92;;;;;;;;;;5051262;28;25079;-80
2023/07/04 01:38:44;;;;;;;11.18;2.53;;;;;;;;;;5053042;28;25075;-80
2023/07/04 01:41:10;;;;;;;10.07;2.10;;;;;;;;;;5037158;28;25133;-77
2023/07/04 01:43:37;;;;;;;9.57;1.75;;;;;;;;;;5022161;28;25078;-76
2023/07/04 01:46:03;;;;;;;9.85;2.45;;;;;;;;;;5029840;28;25082;-78
2023/07/04 01:48:29;;;;;;;15.50;2.47;;;;;;;;;;5022546;28;25122;-77
2023/07/04 01:50:55;;;;;;;6.95;1.75;;;;;;;;;;5033496;28;25072;-77
2023/07/04 01:53:21;;;;;;;12.02;2.30;;;;;;;;;;5040700;28;25065;-76
2023/07/04 01:55:47;;;;;;;11.68;2.47;;;;;;;;;;5022518;28;25075;-75
2023/07/04 01:58:13;;;;;;;7.70;2.33;;;;;;;;;;5034751;28;25066;-77
2023/07/04 02:00:39;;;;;;;8.82;2.55;;;;;;;;;;5046845;28;25111;-77
2023/07/04 02:03:06;;;;;;;10.90;2.25;;;;;;;;;;5030444;28;25100;-78
2023/07/04 02:05:32;;;;;;;12.50;2.25;;;;;;;;;;5026398;28;25074;-77
2023/07/04 02:07:58;;;;;;;16.42;2.58;;;;;;;;;;5029352;28;25050;-78
2023/07/04 02:10:26;;;;;;;10.43;2.53;;;;;;;;;;5033807;28;25165;-78
2023/07/04 02:12:52;;;;;;;5.93;1.58;;;;;;;;;;5028797;28;25082;-77
2023/07/04 02:15:18;;;;;;;9.85;2.13;;;;;;;;;;5039921;28;25152;-74
2023/07/04 02:17:44;;;;;;;9.00;2.30;;;;;;;;;;5029259;28;25081;-78
2023/07/04 02:20:10;;;;;;;7.68;2.17;;;;;;;;;;5023626;28;25062;-76
2023/07/04 02:22:38;;;;;;;9.88;2.25;;;;;;;;;;5021380;28;25083;-76
2023/07/04 02:25:04;;;;;;;9.65;2.03;;;;;;;;;;5030780;28;25142;-77
2023/07/04 02:27:30;;;;;;;10.27;3.00;;;;;;;;;;5021915;28;25070;-77
2023/07/04 02:29:56;;;;;;;8.38;3.60;;;;;;;;;;5030514;28;25056;-78
2023/07/04 02:32:22;;;;;;;13.88;2.92;;;;;;;;;;5027022;28;25114;-76
2023/07/04 02:34:48;;;;;;;9.07;2.13;;;;;;;;;;5023615;28;25080;-76
2023/07/04 02:37:14;;;;;;;7.70;2.50;;;;;;;;;;5029657;28;25156;-76
2023/07/04 02:39:41;;;;;;;14.48;3.08;;;;;;;;;;5027581;28;25055;-77
2023/07/04 02:42:07;;;;;;;10.05;2.40;;;;;;;;;;5051423;28;25080;-78
2023/07/04 02:44:34;;;;;;;10.10;2.60;;;;;;;;;;5045694;28;25073;-79
2023/07/04 02:47:00;;;;;;;16.05;3.72;;;;;;;;;;5035996;28;25071;-76
2023/07/04 02:49:26;;;;;;;10.85;2.33;;;;;;;;;;5027079;28;25072;-76
2023/07/04 02:51:52;;;;;;;9.52;2.45;;;;;;;;;;5026699;28;25110;-76
2023/07/04 02:54:18;;;;;;;12.70;2.90;;;;;;;;;;5030009;28;25069;-76
2023/07/04 02:56:44;;;;;;;8.98;2.33;;;;;;;;;;5023739;28;25101;-77
2023/07/04 02:59:10;;;;;;;13.57;2.25;;;;;;;;;;5035071;28;25060;-76
2023/07/04 03:01:36;;;;;;;11.95;2.20;;;;;;;;;;5033491;28;25058;-76
2023/07/04 03:04:02;;;;;;;11.40;2.72;;;;;;;;;;5029949;28;25106;-75
2023/07/04 03:06:28;;;;;;;12.27;2.42;;;;;;;;;;5019748;28;25093;-76
2023/07/04 03:08:56;;;;;;;7.05;2.17;;;;;;;;;;5030424;28;25052;-75
2023/07/04 03:11:22;;;;;;;8.93;2.42;;;;;;;;;;5026893;28;25115;-75
2023/07/04 03:13:48;;;;;;;8.00;2.80;;;;;;;;;;5031604;28;25087;-78
2023/07/04 03:16:14;;;;;;;11.05;3.10;;;;;;;;;;5024901;28;25134;-75
2023/07/04 03:18:40;;;;;;;9.50;2.22;;;;;;;;;;5037586;28;25060;-76
2023/07/04 03:21:06;;;;;;;7.70;2.45;;;;;;;;;;5036699;28;25063;-77
2023/07/04 03:23:32;;;;;;;11.63;2.40;;;;;;;;;;5021048;28;25145;-77
2023/07/04 03:25:58;;;;;;;10.65;2.63;;;;;;;;;;5021894;28;25054;-76
2023/07/04 03:28:24;;;;;;;10.50;2.28;;;;;;;;;;5029176;28;25057;-77
2023/07/04 03:30:50;;;;;;;6.47;2.13;;;;;;;;;;5020214;28;25108;-75
2023/07/04 03:33:16;;;;;;;7.43;2.08;;;;;;;;;;5028015;28;25056;-76
2023/07/04 03:35:42;;;;;;;10.82;2.78;;;;;;;;;;5027266;28;25064;-72
2023/07/04 03:38:08;;;;;;;15.30;2.97;;;;;;;;;;5024212;28;25087;-75
2023/07/04 03:40:34;;;;;;;9.65;2.17;;;;;;;;;;5030026;28;25093;-76
2023/07/04 03:43:00;;;;;;;15.50;2.55;;;;;;;;;;5021554;28;25149;-77
2023/07/04 03:45:26;;;;;;;15.30;2.53;;;;;;;;;;5020162;28;25055;-78
2023/07/04 03:47:52;;;;;;;12.50;2.95;;;;;;;;;;5038638;28;25065;-74
2023/07/04 03:50:18;;;;;;;16.77;2.58;;;;;;;;;;5045746;28;25097;-76
2023/07/04 03:52:44;;;;;;;9.30;2.08;;;;;;;;;;5050503;28;25055;-77
2023/07/04 03:55:10;;;;;;;9.48;2.95;;;;;;;;;;5032438;28;25071;-76
2023/07/04 03:57:38;;;;;;;5.65;1.90;;;;;;;;;;5049178;28;25151;-77
2023/07/04 04:00:06;;;;;;;13.40;2.30;;;;;;;;;;5047131;28;25076;-76
2023/07/04 04:02:33;;;;;;;7.53;3.35;;;;;;;;;;5037144;28;25056;-77
2023/07/04 04:04:59;;;;;;;12.98;2.53;;;;;;;;;;5028845;28;25131;-76
2023/07/04 04:07:25;;;;;;;11.60;3.25;;;;;;;;;;5037294;28;25096;-75
2023/07/04 04:09:51;;;;;;;12.55;2.30;;;;;;;;;;5020374;28;25083;-76
2023/07/04 04:12:17;;;;;;;9.07;2.78;;;;;;;;;;5021319;28;25059;-75
2023/07/04 04:14:44;;;;;;;17.90;3.15;;;;;;;;;;5033405;28;25058;-75
2023/07/04 04:17:10;;;;;;;11.13;2.17;;;;;;;;;;5023970;28;25101;-76
2023/07/04 04:19:36;;;;;;;12.15;2.60;;;;;;;;;;5026257;28;25077;-76
2023/07/04 04:22:03;;;;;;;9.50;2.28;;;;;;;;;;5026600;28;25112;-76
2023/07/04 04:24:30;;;;;;;10.32;2.10;;;;;;;;;;5024022;28;25064;-76
2023/07/04 04:26:57;;;;;;;8.88;2.08;;;;;;;;;;5021506;28;25150;-76
2023/07/04 04:29:23;;;;;;;18.55;2.70;;;;;;;;;;5031108;28;25080;-77
2023/07/04 04:31:49;;;;;;;11.65;2.30;;;;;;;;;;5034325;28;25097;-77
2023/07/04 04:34:20;;;;;;;10.57;2.30;;;;;;;;;;5030426;28;25070;-75
2023/07/04 04:36:46;;;;;;;19.40;2.70;;;;;;;;;;5024805;28;25090;-77
2023/07/04 04:39:13;;;;;;;12.00;2.88;;;;;;;;;;5021407;28;25075;-76
2023/07/04 04:41:39;;;;;;;13.02;2.47;;;;;;;;;;5019476;28;25066;-77
2023/07/04 04:44:05;;;;;;;13.30;2.13;;;;;;;;;;5028663;28;25050;-77
2023/07/04 04:46:32;;;;;;;10.77;2.80;;;;;;;;;;5016032;28;25101;-77
2023/07/04 04:49:04;;;;;;;12.98;2.17;;;;;;;;;;5027036;28;25167;-77
2023/07/04 04:51:33;;;;;;;13.27;2.55;;;;;;;;;;5024290;28;25086;-74
2023/07/04 04:54:01;;;;;;;10.95;2.60;;;;;;;;;;5047890;28;25073;-74
2023/07/04 04:56:27;;;;;;;14.05;2.10;;;;;;;;;;5041063;28;25064;-76
2023/07/04 04:58:53;;;;;;;12.68;3.13;;;;;;;;;;5040427;28;25075;-74
2023/07/04 05:01:23;;;;;;;8.07;2.20;;;;;;;;;;5042055;28;25060;-75
2023/07/04 05:03:52;;;;;;;10.40;2.88;;;;;;;;;;5062564;28;25108;-76
2023/07/04 05:06:19;;;;;;;14.75;2.55;;;;;;;;;;5053880;28;25100;-78
2023/07/04 05:08:45;;;;;;;8.43;3.00;;;;;;;;;;5056075;28;25088;-78
2023/07/04 05:11:11;;;;;;;11.32;2.95;;;;;;;;;;5052562;28;25082;-80
2023/07/04 05:13:38;;;;;;;11.05;2.20;;;;;;;;;;5046673;28;25090;-77
2023/07/04 05:16:09;;;;;;;5.82;2.42;;;;;;;;;;5042277;28;25082;-78
2023/07/04 05:18:36;;;;;;;15.45;2.67;;;;;;;;;;5055010;28;25085;-81
2023/07/04 05:21:03;;;;;;;10.90;2.38;;;;;;;;;;5051163;28;25057;-79
2023/07/04 05:23:32;;;;;;;14.52;2.60;;;;;;;;;;5041137;28;25056;-77
2023/07/04 05:26:01;;;;;;;9.98;2.58;;;;;;;;;;5044265;28;25083;-79
2023/07/04 05:28:28;;;;;;;10.98;2.63;;;;;;;;;;5026378;28;25080;-77
2023/07/04 05:30:58;;;;;;;12.05;2.25;;;;;;;;;;5024015;28;25059;-77
2023/07/04 05:33:24;;;;;;;11.25;2.97;;;;;;;;;;5031108;28;25064;-77
2023/07/04 05:35:49;;;;;;;11.35;2.20;;;;;;;;;;5034860;28;25101;-77
2023/07/04 05:38:15;;;;;;;12.27;2.78;;;;;;;;;;5028702;28;25077;-78
2023/07/04 05:40:43;;;;;;;11.00;2.85;;;;;;;;;;5030614;28;25147;-78
2023/07/04 05:43:09;;;;;;;12.48;2.30;;;;;;;;;;5035861;28;25116;-78
2023/07/04 05:45:35;;;;;;;11.05;2.40;;;;;;;;;;5028023;28;25083;-79
2023/07/04 05:48:01;;;;;;;13.48;2.45;;;;;;;;;;5020860;28;25070;-75
2023/07/04 05:50:27;;;;;;;10.63;2.78;;;;;;;;;;5021524;28;25083;-76
2023/07/04 05:52:53;;;;;;;15.77;2.63;;;;;;;;;;5024297;28;25072;-76
2023/07/04 05:55:19;;;;;;;12.38;2.65;;;;;;;;;;5024398;28;25172;-76
2023/07/04 05:57:54;;;;;;;14.88;2.67;;;;;;;;;;5019836;28;25117;-76
2023/07/04 06:00:20;;;;;;;15.18;2.63;;;;;;;;;;5046099;28;25084;-75
2023/07/04 06:02:48;;;;;;;13.55;3.20;;;;;;;;;;5044370;28;25051;-78
2023/07/04 06:05:14;;;;;;;16.83;3.38;;;;;;;;;;5025720;28;25075;-75
2023/07/04 06:07:40;;;;;;;16.63;3.30;;;;;;;;;;5023097;28;25052;-75
2023/07/04 06:10:07;;;;;;;14.02;3.15;;;;;;;;;;5016688;28;25149;-74
2023/07/04 06:12:34;;;;;;;14.95;3.30;;;;;;;;;;5029186;28;25081;-78
2023/07/04 06:15:01;;;;;;;10.38;3.25;;;;;;;;;;5035745;28;25068;-78
2023/07/04 06:17:27;;;;;;;9.50;1.75;;;;;;;;;;5031922;28;25073;-77
2023/07/04 06:19:53;;;;;;;10.10;1.95;;;;;;;;;;5020710;28;25074;-76
2023/07/04 06:22:18;;;;;;;11.68;2.83;;;;;;;;;;5014847;28;25080;-75
2023/07/04 06:24:47;;;;;;;9.30;2.50;;;;;;;;;;5023327;28;25072;-77
2023/07/04 06:27:14;;;;;;;13.40;2.30;;;;;;;;;;5019611;28;25062;-76
2023/07/04 06:29:40;;;;;;;12.07;2.35;;;;;;;;;;5021584;28;25078;-76
2023/07/04 06:32:06;;;;;;;8.50;2.28;;;;;;;;;;5019784;28;25071;-78
2023/07/04 06:34:32;;;;;;;3.60;1.50;;;;;;;;;;5018627;28;25065;-76
2023/07/04 06:36:58;;;;;;;11.32;2.50;;;;;;;;;;5022575;28;25081;-75
2023/07/04 06:39:24;;;;;;;8.98;2.15;;;;;;;;;;5025450;28;25155;-77
2023/07/04 06:41:50;;;;;;;12.32;1.88;;;;;;;;;;5018901;28;25104;-76
2023/07/04 06:44:16;;;;;;;9.55;2.92;;;;;;;;;;5012830;28;25108;-76
2023/07/04 06:46:44;;;;;;;8.13;2.42;;;;;;;;;;5025164;28;25053;-76
2023/07/04 06:49:10;;;;;;;11.65;2.10;;;;;;;;;;5050354;28;25088;-76
2023/07/04 06:51:36;;;;;;;14.30;2.25;;;;;;;;;;5020778;28;25148;-75
2023/07/04 06:54:02;;;;;;;7.32;1.75;;;;;;;;;;5020468;28;25062;-76
2023/07/04 06:56:28;;;;;;;12.48;2.00;;;;;;;;;;5027307;28;25130;-77
2023/07/04 06:58:55;;;;;;;9.32;2.08;;;;;;;;;;5026961;28;25058;-77
2023/07/04 07:01:28;;;;;;;12.77;2.28;;;;;;;;;;5044627;28;25091;-77
2023/07/04 07:03:54;;;;;;;15.15;2.40;;;;;;;;;;5046241;28;25163;-76
2023/07/04 07:06:20;;;;;;;10.63;1.90;;;;;;;;;;5046211;28;25090;-77
2023/07/04 07:08:46;;;;;;;10.02;1.95;;;;;;;;;;5044550;28;25049;-74
2023/07/04 07:11:14;;;;;;;17.23;2.85;;;;;;;;;;5046060;28;25062;-76
2023/07/04 07:13:40;;;;;;;14.77;3.72;;;;;;;;;;5036456;28;25068;-75
2023/07/04 07:16:33;;;;;;;14.77;2.38;;;;;;;;;;5032059;28;25174;-77
2023/07/04 07:18:59;;;;;;;10.18;2.03;;;;;;;;;;5035738;28;25123;-77
2023/07/04 07:21:26;;;;;;;13.02;2.28;;;;;;;;;;5018552;28;25067;-75
2023/07/04 07:23:53;;;;;;;10.30;2.35;;;;;;;;;;5022888;28;25170;-77
2023/07/04 07:26:20;;;;;;;12.02;2.40;;;;;;;;;;5015660;28;25085;-76
2023/07/04 07:28:46;;;;;;;12.80;2.17;;;;;;;;;;5019388;28;25082;-72
2023/07/04 07:31:18;;;;;;;18.35;2.65;;;;;;;;;;5023600;28;25068;-76
2023/07/04 07:33:45;;;;;;;15.75;2.63;;;;;;;;;;5020186;28;25057;-76
2023/07/04 07:36:14;;;;;;;9.23;2.20;;;;;;;;;;5035793;28;25110;-75
2023/07/04 07:38:40;;;;;;;13.35;2.10;;;;;;;;;;5037501;28;25054;-76
2023/07/04 07:41:06;;;;;;;10.77;2.20;;;;;;;;;;5022690;28;25083;-76
2023/07/04 07:43:32;;;;;;;7.57;2.30;;;;;;;;;;5036970;28;25089;-76
2023/07/04 07:45:58;;;;;;;15.70;2.63;;;;;;;;;;5013443;28;25053;-76
2023/07/04 07:48:24;;;;;;;10.18;2.22;;;;;;;;;;5014878;28;25064;-74
2023/07/04 07:50:50;;;;;;;9.77;2.05;;;;;;;;;;5021901;28;25058;-74
2023/07/04 07:53:16;;;;;;;11.45;2.33;;;;;;;;;;5019044;28;25078;-76
2023/07/04 07:55:42;;;;;;;9.80;2.92;;;;;;;;;;5019149;28;25076;-78
2023/07/04 07:58:08;;;;;;;8.57;2.20;;;;;;;;;;5019944;28;25153;-76
2023/07/04 08:00:35;;;;;;;11.10;2.03;;;;;;;;;;5019370;28;25073;-77
2023/07/04 08:03:01;;;;;;;9.90;2.83;;;;;;;;;;5028323;28;25067;-76
2023/07/04 08:05:27;;;;;;;11.70;2.13;;;;;;;;;;5027972;28;25096;-74
2023/07/04 08:07:53;;;;;;;11.00;2.30;;;;;;;;;;5024832;28;25155;-77
2023/07/04 08:10:19;;;;;;;13.38;2.20;;;;;;;;;;5024744;28;25080;-74
2023/07/04 08:12:45;;;;;;;15.30;2.92;;;;;;;;;;5036865;28;25049;-75
2023/07/04 08:15:11;;;;;;;10.70;2.70;;;;;;;;;;5008217;28;25047;-77
2023/07/04 08:17:37;;;;;;;10.02;1.75;;;;;;;;;;5031297;28;25057;-75
2023/07/04 08:20:04;;;;;;;12.05;2.88;;;;;;;;;;5025486;28;25133;-75
2023/07/04 08:22:30;;;;;;;12.25;2.70;;;;;;;;;;5029518;28;25159;-77
2023/07/04 08:24:58;;;;;;;7.88;2.28;;;;;;;;;;5027241;28;25045;-76
2023/07/04 08:27:25;;;;;;;10.77;2.30;;;;;;;;;;5024270;28;25106;-78
2023/07/04 08:29:51;;;;;;;8.55;2.00;;;;;;;;;;5026710;28;25086;-78
2023/07/04 08:32:20;;;;;;;12.13;2.17;;;;;;;;;;5028753;28;25088;-75
2023/07/04 08:34:47;;;;;;;12.80;3.08;;;;;;;;;;5020641;28;25073;-76
2023/07/04 08:37:13;;;;;;;9.30;2.38;;;;;;;;;;5026931;28;25069;-77
2023/07/04 08:39:46;;;;;;;6.93;1.88;;;;;;;;;;5026605;28;25083;-77
2023/07/04 08:42:11;;;;;;;;;;;;;;;;;;5021011;28;25086;-77
2023/07/04 08:44:48;;;;;;;10.13;1.73;;;;;;;;;;5020719;28;25093;-77
2023/07/04 08:47:16;;;;;;;6.68;1.92;;;;;;;;;;5027429;28;25051;-76
2023/07/04 08:49:44;;;;;;;9.45;2.05;;;;;;;;;;5023609;28;25073;-77
2023/07/04 08:52:14;;;;;;;10.77;2.10;;;;;;;;;;5022606;28;25093;-77
2023/07/04 08:54:40;;;;;;;8.93;2.10;;;;;;;;;;5024124;28;25076;-77
2023/07/04 08:57:15;;;;;;;4.15;1.75;;;;;;;;;;5021037;28;25068;-75
2023/07/04 08:59:42;;;;;;;7.22;1.60;;;;;;;;;;5024056;28;24809;-75
2023/07/04 09:02:35;;;;;;;12.20;2.55;;;;;;;;;;5026243;28;25125;-76
2023/07/04 09:05:01;;;;;;;;;;;;;;;;;;5025493;28;25096;-78
2023/07/04 09:07:32;;;;;;;10.82;1.75;;;;;;;;;;5023657;28;24093;-77
2023/07/04 09:10:10;;;;;;;14.32;2.28;;;;;;;;;;5020840;28;25126;-76
2023/07/04 09:12:36;;;;;;;6.55;2.42;;;;;;;;;;5024301;28;25082;-77
2023/07/04 09:15:12;;;;;;;7.80;2.33;;;;;;;;;;5028178;28;25070;-79
2023/07/04 09:17:40;;;;;;;13.50;2.40;;;;;;;;;;5028712;28;25080;-78
2023/07/04 09:20:08;;;;;;;10.65;2.00;;;;;;;;;;5038244;28;25077;-76
2023/07/04 09:22:35;;;;;;;11.80;2.42;;;;;;;;;;5055374;28;25173;-75
2023/07/04 09:25:02;;;;;;;12.68;2.08;;;;;;;;;;5050890;28;25124;-75
2023/07/04 09:27:29;;;;;;;7.72;1.83;;;;;;;;;;5034296;28;25061;-72
2023/07/04 09:29:56;;;;;;;8.27;2.15;;;;;;;;;;5047626;28;25049;-74
2023/07/04 09:32:22;;;;;;;8.30;1.70;;;;;;;;;;5051521;28;25081;-76
2023/07/04 09:34:49;;;;;;;5.88;1.98;;;;;;;;;;5046743;28;25084;-75
2023/07/04 09:37:17;;;;;;;8.00;1.60;;;;;;;;;;5034052;28;25077;-75
2023/07/04 09:39:47;;;;;;;8.13;2.22;;;;;;;;;;5036865;28;25086;-76
2023/07/04 09:42:14;;;;;;;10.05;2.40;;;;;;;;;;5025819;28;25066;-73
2023/07/04 09:44:41;;;;;;;4.50;1.70;;;;;;;;;;5041869;28;25069;-74
2023/07/04 09:47:13;;;;;;;5.38;1.58;;;;;;;;;;5052450;28;25089;-76
2023/07/04 09:49:39;;;;;;;;;;;;;;;;;;5041052;28;25062;-72
2023/07/04 09:52:11;;;;;;;9.40;2.03;;;;;;;;;;5045272;28;24077;-74
2023/07/04 09:54:38;;;;;;;7.97;1.42;;;;;;;;;;5045630;28;25079;-76
2023/07/04 09:57:16;;;;;;;7.50;1.60;;;;;;;;;;5034607;28;25063;-74
2023/07/04 09:59:43;;;;;;;8.23;1.75;;;;;;;;;;5034667;28;25059;-73
2023/07/04 10:02:14;;;;;;;10.00;2.15;;;;;;;;;;5024785;28;25068;-74
2023/07/04 10:04:40;;;;;;;6.03;1.58;;;;;;;;;;5025525;28;25063;-73
2023/07/04 10:07:13;;;;;;;8.35;1.60;;;;;;;;;;5021978;28;25159;-72
2023/07/04 10:09:48;;;;;;;9.25;2.58;;;;;;;;;;5020219;28;25107;-74
2023/07/04 10:12:17;;;;;;;5.95;1.95;;;;;;;;;;5028045;28;25179;-76
2023/07/04 10:14:47;;;;;;;4.22;1.90;;;;;;;;;;5027355;28;25157;-74
2023/07/04 10:17:22;;;;;;;6.72;1.73;;;;;;;;;;5021954;28;25059;-74
2023/07/04 10:19:50;;;;;;;8.25;1.65;;;;;;;;;;5016606;28;25069;-72
2023/07/04 10:22:26;;;;;;;11.18;2.20;;;;;;;;;;5021771;28;25151;-73
2023/07/04 10:24:52;;;;;;;8.32;1.60;;;;;;;;;;5026065;28;25095;-73
2023/07/04 10:27:19;;;;;;;7.68;1.75;;;;;;;;;;5026970;28;25076;-74
2023/07/04 10:29:48;;;;;;;6.43;1.70;;;;;;;;;;5025893;28;25124;-76
2023/07/04 10:32:16;;;;;;;7.10;1.90;;;;;;;;;;5020524;28;25079;-73
2023/07/04 10:34:46;;;;;;;8.82;1.80;;;;;;;;;;5017242;28;25052;-75
2023/07/04 10:37:33;;;;;;;9.00;1.90;;;;;;;;;;5023758;28;25064;-72
2023/07/04 10:40:02;;;;;;;8.43;1.98;;;;;;;;;;5025363;28;25090;-73
2023/07/04 10:42:44;;;;;;;7.78;1.95;;;;;;;;;;5037107;28;25059;-78
2023/07/04 10:45:13;;;;;;;8.23;1.60;;;;;;;;;;5040174;28;25048;-73
2023/07/04 10:47:39;;;;;;;7.18;2.10;;;;;;;;;;5043294;28;25055;-76
2023/07/04 10:50:08;;;;;;;8.70;1.73;;;;;;;;;;5034438;28;25044;-74
2023/07/04 10:52:34;;;;;;;7.05;1.85;;;;;;;;;;5045507;28;25071;-73
2023/07/04 10:55:01;;;;;;;5.10;1.60;;;;;;;;;;5040286;28;25092;-74
2023/07/04 10:57:35;;;;;;;2.85;1.35;;;;;;;;;;5023998;28;25102;-74
2023/07/04 11:00:13;;;;;;;4.78;1.67;;;;;;;;;;5018023;28;25072;-76
2023/07/04 11:02:49;;;;;;;9.70;1.70;;;;;;;;;;5026434;28;25164;-72
2023/07/04 11:05:19;;;;;;;8.80;1.92;;;;;;;;;;5023053;28;25094;-74
2023/07/04 11:07:45;;;;;;;6.88;2.00;;;;;;;;;;5027137;28;25070;-74
2023/07/04 11:10:13;;;;;;;6.50;1.83;;;;;;;;;;5022580;28;25100;-74
2023/07/04 11:12:42;;;;;;;4.40;1.40;;;;;;;;;;5022172;28;25131;-76
2023/07/04 11:15:20;;;;;;;7.47;2.00;;;;;;;;;;5022923;28;25072;-75
2023/07/04 11:17:46;;;;;;;5.30;1.75;;;;;;;;;;5025636;28;25161;-76
2023/07/04 11:20:17;;;;;;;5.85;1.73;;;;;;;;;;5030896;28;25062;-76
2023/07/04 11:22:52;;;;;;;5.95;1.70;;;;;;;;;;5048904;28;25061;-74
2023/07/04 11:25:54;;;;;;;6.90;1.75;;;;;;;;;;5043943;28;25119;-75
2023/07/04 11:28:25;;;;;;;10.90;2.45;;;;;;;;;;5031372;28;25143;-76
2023/07/04 11:30:51;;;;;;;5.47;1.48;;;;;;;;;;5022346;28;25133;-75
2023/07/04 11:33:36;;;;;;;9.75;2.20;;;;;;;;;;5038134;28;25069;-74
2023/07/04 11:36:03;;;;;;;8.13;1.60;;;;;;;;;;5052540;28;25063;-76
2023/07/04 11:38:30;;;;;;;5.28;1.73;;;;;;;;;;5021580;28;25091;-75
2023/07/04 11:40:57;;;;;;;5.80;1.33;;;;;;;;;;5016030;28;25060;-71
2023/07/04 11:43:27;;;;;;;5.25;2.22;;;;;;;;;;5023387;28;25277;-75
2023/07/04 11:45:55;;;;;;;6.88;1.98;;;;;;;;;;5025280;28;25067;-75
2023/07/04 11:48:21;;;;;;;8.23;2.22;;;;;;;;;;5023084;28;25067;-75
2023/07/04 11:50:49;;;;;;;5.88;1.48;;;;;;;;;;5024164;28;25062;-75
2023/07/04 11:53:15;;;;;;;6.13;1.33;;;;;;;;;;5034401;28;25055;-75
2023/07/04 11:55:41;;;;;;;7.38;1.55;;;;;;;;;;5028615;28;25150;-76
2023/07/04 11:58:07;;;;;;;9.98;1.70;;;;;;;;;;5020581;28;25082;-74
2023/07/04 12:00:37;;;;;;;5.45;1.75;;;;;;;;;;5048413;28;25072;-76
2023/07/04 12:03:19;;;;;;;6.80;1.60;;;;;;;;;;5028539;28;25074;-75
2023/07/04 12:05:53;;;;;;;4.72;1.85;;;;;;;;;;5019977;28;25141;-74
2023/07/04 12:08:29;;;;;;;3.53;1.27;;;;;;;;;;5031105;28;25102;-75
2023/07/04 12:11:00;;;;;;;3.17;1.33;;;;;;;;;;5018776;28;25072;-76
2023/07/04 12:13:28;;;;;;;4.40;1.40;;;;;;;;;;5019372;28;25100;-75
2023/07/04 12:15:55;;;;;;;9.18;2.63;;;;;;;;;;5024173;28;25081;-76
2023/07/04 12:18:23;;;;;;;6.43;1.67;;;;;;;;;;5025686;28;25071;-74
2023/07/04 12:20:50;;;;;;;3.50;1.40;;;;;;;;;;5033697;28;25076;-76
2023/07/04 12:23:16;;;;;;;5.35;1.50;;;;;;;;;;5027801;28;25045;-71
2023/07/04 12:25:47;;;;;;;2.72;1.60;;;;;;;;;;5025970;28;25060;-74
2023/07/04 12:28:13;;;;;;;4.30;1.27;;;;;;;;;;5022692;28;24797;-78
2023/07/04 12:30:48;;;;;;;4.72;2.10;;;;;;;;;;5016116;28;25086;-76
2023/07/04 12:33:23;;;;;;;6.93;1.77;;;;;;;;;;5024293;28;25062;-76
2023/07/04 12:35:55;;;;;;;4.43;1.48;;;;;;;;;;5021593;28;25097;-76
2023/07/04 12:38:24;;;;;;;6.32;1.30;;;;;;;;;;5043854;28;25050;-74
2023/07/04 12:40:51;;;;;;;5.32;1.40;;;;;;;;;;5059074;28;25068;-73
2023/07/04 12:43:17;;;;;;;5.43;1.63;;;;;;;;;;5024884;28;25086;-76
2023/07/04 12:45:43;;;;;;;6.57;1.30;;;;;;;;;;5022645;28;25062;-73
2023/07/04 12:48:10;;;;;;;4.45;1.58;;;;;;;;;;5031040;28;25090;-76
2023/07/04 12:50:40;;;;;;;4.75;1.42;;;;;;;;;;5020500;28;25053;-78
2023/07/04 12:53:08;;;;;;;5.53;1.77;;;;;;;;;;5025536;28;25136;-75
2023/07/04 12:55:36;;;;;;;5.15;2.47;;;;;;;;;;5024650;28;25073;-76
2023/07/04 12:58:04;;;;;;;2.55;1.40;;;;;;;;;;5026471;28;25129;-76
2023/07/04 13:00:43;;;;;;;3.60;1.77;;;;;;;;;;5020982;28;25137;-77
2023/07/04 13:03:10;;;;;;;5.43;2.28;;;;;;;;;;5017269;28;25136;-75
2023/07/04 13:05:46;;;;;;;4.10;1.65;;;;;;;;;;5027953;28;25078;-74
2023/07/04 13:08:14;;;;;;;6.07;1.80;;;;;;;;;;5025187;28;25052;-74
2023/07/04 13:10:40;;;;;;;5.43;1.80;;;;;;;;;;5051896;28;25246;-75
2023/07/04 13:13:26;;;;;;;3.15;1.60;;;;;;;;;;5049336;28;25130;-76
2023/07/04 13:16:07;;;;;;;8.15;1.90;;;;;;;;;;5047196;28;25092;-75
2023/07/04 13:18:37;;;;;;;8.48;1.70;;;;;;;;;;5037464;28;25092;-72
2023/07/04 13:21:03;;;;;;;3.58;1.40;;;;;;;;;;5030860;28;25094;-75
2023/07/04 13:23:32;;;;;;;4.90;1.85;;;;;;;;;;5022844;28;25130;-75
2023/07/04 13:25:58;;;;;;;3.88;1.52;;;;;;;;;;5023971;28;25073;-77
2023/07/04 13:28:27;;;;;;;8.50;1.85;;;;;;;;;;5028589;28;25066;-73
2023/07/04 13:30:53;;;;;;;2.42;1.70;;;;;;;;;;5027492;28;25056;-75
2023/07/04 13:33:34;;;;;;;5.22;1.70;;;;;;;;;;5049790;28;25109;-74
2023/07/04 13:36:11;;;;;;;3.83;1.42;;;;;;;;;;5026382;28;25053;-76
2023/07/04 13:38:37;;;;;;;6.78;2.28;;;;;;;;;;5018446;28;25073;-73
2023/07/04 13:41:05;;;;;;;7.40;1.73;;;;;;;;;;5023781;28;25081;-76
2023/07/04 13:43:31;;;;;;;5.35;1.85;;;;;;;;;;5023217;28;25059;-75
2023/07/04 13:45:57;;;;;;;6.10;1.70;;;;;;;;;;5011604;28;25062;-75
2023/07/04 13:48:24;;;;;;;4.47;2.10;;;;;;;;;;5024064;28;25056;-74
2023/07/04 13:50:50;;;;;;;11.02;2.17;;;;;;;;;;5050755;28;25047;-73
2023/07/04 13:53:16;;;;;;;4.32;1.80;;;;;;;;;;5042681;28;25134;-75
2023/07/04 13:55:42;;;;;;;5.28;2.03;;;;;;;;;;5044970;28;25068;-74
2023/07/04 13:58:08;;;;;;;4.07;2.10;;;;;;;;;;5026176;28;25059;-75
2023/07/04 14:00:34;;;;;;;5.97;2.30;;;;;;;;;;5023703;28;25052;-73
2023/07/04 14:03:00;;;;;;;9.35;2.30;;;;;;;;;;5024290;28;25099;-72
2023/07/04 14:05:26;;;;;;;4.00;1.77;;;;;;;;;;5020293;28;25144;-74
2023/07/04 14:07:52;;;;;;;8.85;2.55;;;;;;;;;;5017491;28;25061;-75
2023/07/04 14:10:19;;;;;;;8.70;2.85;;;;;;;;;;5043438;28;25073;-73
2023/07/04 14:12:45;;;;;;;9.55;2.42;;;;;;;;;;5032215;28;25099;-76
2023/07/04 14:15:11;;;;;;;7.80;2.70;;;;;;;;;;5032989;28;25060;-74
2023/07/04 14:17:37;;;;;;;15.75;3.20;;;;;;;;;;5019332;28;25054;-75
2023/07/04 14:20:04;;;;;;;8.10;2.47;;;;;;;;;;5027950;28;25129;-72
2023/07/04 14:22:30;;;;;;;9.20;2.97;;;;;;;;;;5016598;28;25081;-74
2023/07/04 14:24:56;;;;;;;9.27;2.88;;;;;;;;;;5026506;28;25109;-74
2023/07/04 14:27:24;;;;;;;11.10;3.03;;;;;;;;;;5026839;28;25080;-74
2023/07/04 14:29:50;;;;;;;8.02;2.90;;;;;;;;;;5041418;28;25069;-74
2023/07/04 14:32:16;;;;;;;7.57;2.53;;;;;;;;;;5045190;28;25050;-74
2023/07/04 14:34:42;;;;;;;8.63;3.08;;;;;;;;;;5027342;28;25090;-73
2023/07/04 14:37:08;;;;;;;9.90;3.15;;;;;;;;;;5024309;28;25071;-75
2023/07/04 14:39:34;;;;;;;11.40;2.45;;;;;;;;;;5025149;28;25121;-74
2023/07/04 14:42:00;;;;;;;10.68;2.40;;;;;;;;;;5011879;28;25091;-74
2023/07/04 14:44:27;;;;;;;4.30;2.03;;;;;;;;;;5025561;28;25066;-73